Abanilla, Spain
Current Conditions -  °F | °C
As of 10:00 AM on Wednesday 28 Jan 2015 (Local Time) from LEAL Reporting Station
Few Clouds Few Clouds  
Wind Chill: 52°   Ceiling: Unl
Heat Index: 52°   Visibility: 6mi
Dew Point: 32°   Wind: 12mph
Humidity: 47%   Direction: 250°WSW
Pressure: 30.24"   Gusts: NA
Location:  38.21°N, 1.04°W
Report Text: LEAL 280900Z 25010KT 220V280 9999 FEW025 11/00 Q1024 NOSIG
Loading
Personal Weather Stations






























Interactive Weather Map New forecast layout! Learn more

10-Day Weather Forecast

Advertisements
Track Severe Weather on mobile